WEATHER/FLIGHT PLANNING

Hattiesburg Radar

 

 

 

 

Weather Links

Flight Planning Links

 

METAR

2020/06/03 23:53 KHBG 032353Z AUTO 00000KT 5SM RA BR OVC110 23/21 A2999 RMK AO2 RAB12 SLP151 P0003 60003 T02330211 10300 20233 52012

TAF

2020/06/03 18:46 TAF KHBG 031744Z 0318/0418 21005KT P6SM VCTS BKN030CB BKN100 FM032000 17006KT 3SM TSRA BR BKN025CB OVC100 FM032200 18005KT P6SM -RA BKN030 OVC100 FM040000 15003KT P6SM BKN100 FM040900 00000KT 5SM BR OVC005 FM041400 00000KT P6SM VCTS SCT025CB BKN080